createdAt,value
2023-02-11T00:01:13.329Z,71
2023-02-11T00:06:15.230Z,71
2023-02-11T00:11:16.994Z,71
2023-02-11T00:16:18.204Z,71
2023-02-11T00:21:20.214Z,71
2023-02-11T00:26:22.227Z,71
2023-02-11T00:31:23.562Z,71
2023-02-11T00:36:25.180Z,71
2023-02-11T00:41:26.630Z,70
2023-02-11T00:46:28.147Z,71
2023-02-11T00:51:30.030Z,71
2023-02-11T00:56:31.640Z,71
2023-02-11T01:01:32.885Z,71
2023-02-11T01:06:34.245Z,72
2023-02-11T01:11:35.742Z,72
2023-02-11T01:16:37.909Z,72
2023-02-11T01:21:39.289Z,71
2023-02-11T01:26:40.990Z,71
2023-02-11T01:31:43.003Z,72
2023-02-11T01:36:44.384Z,72
2023-02-11T01:41:46.364Z,72
2023-02-11T01:46:47.753Z,73
2023-02-11T01:51:49.372Z,73
2023-02-11T01:56:51.106Z,73
2023-02-11T02:01:53.241Z,73
2023-02-11T02:06:54.993Z,73
2023-02-11T02:11:56.129Z,73
2023-02-11T02:16:57.763Z,73
2023-02-11T02:21:58.867Z,73
2023-02-11T02:27:00.397Z,73
2023-02-11T02:32:02.228Z,73
2023-02-11T02:37:04.071Z,73
2023-02-11T02:42:05.992Z,73
2023-02-11T02:47:07.804Z,73
2023-02-11T02:52:09.392Z,72
2023-02-11T02:57:10.812Z,72
2023-02-11T03:02:12.463Z,73
2023-02-11T03:07:13.895Z,74
2023-02-11T03:12:15.108Z,74
2023-02-11T03:17:17.386Z,73
2023-02-11T03:22:18.898Z,73
2023-02-11T03:27:20.535Z,74
2023-02-11T03:32:22.736Z,74
2023-02-11T03:37:23.787Z,74
2023-02-11T03:42:25.073Z,74
2023-02-11T03:47:26.359Z,74
2023-02-11T03:52:28.158Z,74
2023-02-11T03:57:29.629Z,73
2023-02-11T04:02:31.023Z,74
2023-02-11T04:07:32.456Z,73
2023-02-11T04:12:33.948Z,73
2023-02-11T04:17:35.390Z,74
2023-02-11T04:22:36.660Z,73
2023-02-11T04:27:38.115Z,73
2023-02-11T04:32:40.387Z,73
2023-02-11T04:37:42.068Z,73
2023-02-11T04:42:43.403Z,73
2023-02-11T04:47:45.016Z,73
2023-02-11T04:52:46.659Z,73
2023-02-11T04:57:48.603Z,73
2023-02-11T05:02:50.127Z,73
2023-02-11T05:07:51.900Z,73
2023-02-11T05:12:55.675Z,73
2023-02-11T05:17:54.990Z,73
2023-02-11T05:22:56.473Z,73
2023-02-11T05:27:58.484Z,73
2023-02-11T05:33:00.618Z,73
2023-02-11T05:38:02.533Z,73
2023-02-11T05:43:04.357Z,73
2023-02-11T05:48:06.056Z,72
2023-02-11T05:53:07.647Z,72
2023-02-11T05:58:09.338Z,72
2023-02-11T06:03:11.628Z,71
2023-02-11T06:08:13.310Z,71
2023-02-11T06:13:14.953Z,71
2023-02-11T06:18:16.292Z,71
2023-02-11T06:23:17.726Z,71
2023-02-11T06:28:18.855Z,71
2023-02-11T06:33:20.055Z,70
2023-02-11T06:38:21.646Z,70
2023-02-11T06:43:22.963Z,70
2023-02-11T06:48:25.115Z,70
2023-02-11T06:53:26.449Z,69
2023-02-11T06:58:27.902Z,69
2023-02-11T07:03:29.119Z,68
2023-02-11T07:08:30.605Z,68
2023-02-11T07:13:32.633Z,67
2023-02-11T07:18:34.392Z,67
2023-02-11T07:23:35.949Z,67
2023-02-11T07:28:37.842Z,67
2023-02-11T07:33:39.278Z,65
2023-02-11T07:38:40.927Z,65
2023-02-11T07:43:42.482Z,65
2023-02-11T07:48:44.520Z,64
2023-02-11T07:53:46.293Z,64
2023-02-11T07:58:47.739Z,65
2023-02-11T08:03:49.433Z,65
2023-02-11T08:08:51.457Z,63
2023-02-11T08:13:53.053Z,63
2023-02-11T08:18:55.169Z,61
2023-02-11T08:23:56.282Z,62
2023-02-11T08:28:58.487Z,61
2023-02-11T08:33:59.685Z,60
2023-02-11T08:39:16.343Z,59
2023-02-11T08:44:02.570Z,58
2023-02-11T08:49:04.042Z,58
2023-02-11T08:54:05.874Z,56
2023-02-11T08:59:07.847Z,56
2023-02-11T09:04:09.760Z,56
2023-02-11T09:09:11.617Z,56
2023-02-11T09:14:13.594Z,55
2023-02-11T09:19:15.175Z,54
2023-02-11T09:24:16.752Z,54
2023-02-11T09:29:18.243Z,52
2023-02-11T09:34:20.205Z,52
2023-02-11T09:39:22.049Z,51
2023-02-11T09:44:23.603Z,45
2023-02-11T09:49:25.646Z,43
2023-02-11T09:54:26.969Z,42
2023-02-11T09:59:28.689Z,39
2023-02-11T10:04:30.867Z,37
2023-02-11T10:09:32.797Z,39
2023-02-11T10:14:34.666Z,38
2023-02-11T10:19:35.990Z,39
2023-02-11T10:24:37.518Z,38
2023-02-11T10:29:39.618Z,39
2023-02-11T10:29:45.943Z,40
2023-02-11T10:34:47.207Z,33
2023-02-11T10:39:48.961Z,31
2023-02-11T10:44:50.518Z,29
2023-02-11T10:49:52.024Z,29
2023-02-11T10:54:53.595Z,29
2023-02-11T10:59:55.549Z,30
2023-02-11T11:04:57.454Z,32
2023-02-11T11:09:59.251Z,32
2023-02-11T11:15:00.440Z,33
2023-02-11T11:20:01.748Z,33
2023-02-11T11:25:03.061Z,34
2023-02-11T11:30:05.157Z,34
2023-02-11T11:45:09.714Z,34
2023-02-11T11:55:13.158Z,34
2023-02-11T12:05:16.782Z,35
2023-02-11T12:10:18.373Z,36
2023-02-11T12:20:21.821Z,37
2023-02-11T12:50:31.828Z,38
2023-02-11T12:55:33.469Z,39
2023-02-11T13:00:35.558Z,39
2023-02-11T13:05:37.156Z,39
2023-02-11T13:10:39.087Z,40
2023-02-11T13:15:41.376Z,40
2023-02-11T13:20:42.835Z,40
2023-02-11T13:25:44.762Z,40
2023-02-11T13:30:46.224Z,40
2023-02-11T13:35:47.611Z,40
2023-02-11T13:40:49.610Z,41
2023-02-11T13:45:50.739Z,41
2023-02-11T13:50:53.950Z,41
2023-02-11T13:55:53.950Z,41
2023-02-11T14:00:56.207Z,41
2023-02-11T14:05:58.185Z,41
2023-02-11T14:10:59.596Z,41
2023-02-11T14:16:01.272Z,42
2023-02-11T14:21:03.566Z,42
2023-02-11T14:26:03.935Z,42
2023-02-11T14:31:05.728Z,42
2023-02-11T14:36:06.977Z,43
2023-02-11T14:41:08.341Z,43
2023-02-11T14:46:10.441Z,43
2023-02-11T14:51:11.825Z,43
2023-02-11T14:56:13.446Z,45
2023-02-11T15:01:15.341Z,45
2023-02-11T15:06:17.472Z,45
2023-02-11T15:11:19.542Z,46
2023-02-11T15:16:21.223Z,46
2023-02-11T15:21:23.273Z,46
2023-02-11T15:26:24.504Z,46
2023-02-11T15:31:26.574Z,47
2023-02-11T15:36:28.870Z,47
2023-02-11T15:41:30.802Z,47
2023-02-11T15:46:32.332Z,47
2023-02-11T15:51:33.998Z,48
2023-02-11T15:56:35.777Z,48
2023-02-11T16:01:37.996Z,48
2023-02-11T16:06:39.345Z,48
2023-02-11T16:11:41.472Z,48
2023-02-11T16:16:43.209Z,48
2023-02-11T16:21:44.929Z,49
2023-02-11T16:26:46.817Z,49
2023-02-11T16:31:48.856Z,49
2023-02-11T16:36:50.382Z,50
2023-02-11T16:41:51.812Z,50
2023-02-11T16:46:53.390Z,51
2023-02-11T16:51:54.880Z,51
2023-02-11T16:56:56.056Z,52
2023-02-11T17:01:57.460Z,52
2023-02-11T17:06:59.308Z,53
2023-02-11T17:12:00.974Z,54
2023-02-11T17:17:02.428Z,54
2023-02-11T17:22:03.874Z,54
2023-02-11T17:27:05.074Z,55
2023-02-11T17:32:07.389Z,55
2023-02-11T17:37:08.973Z,56
2023-02-11T17:42:10.371Z,56
2023-02-11T17:47:12.030Z,57
2023-02-11T17:52:14.168Z,57
2023-02-11T17:57:16.209Z,57
2023-02-11T18:02:17.877Z,58
2023-02-11T18:07:19.681Z,58
2023-02-11T18:12:21.340Z,59
2023-02-11T18:17:22.568Z,59
2023-02-11T18:22:23.944Z,59
2023-02-11T18:27:26.098Z,59
2023-02-11T18:32:27.861Z,59
2023-02-11T18:37:29.734Z,59
2023-02-11T18:42:31.625Z,60
2023-02-11T18:47:33.730Z,59
2023-02-11T18:52:34.927Z,59
2023-02-11T18:57:36.807Z,59
2023-02-11T19:02:38.075Z,59
2023-02-11T19:07:39.628Z,59
2023-02-11T19:12:41.472Z,59
2023-02-11T19:17:42.916Z,59
2023-02-11T19:22:44.836Z,60
2023-02-11T19:27:46.574Z,60
2023-02-11T19:32:48.197Z,59
2023-02-11T19:37:49.897Z,59
2023-02-11T19:42:51.972Z,59
2023-02-11T19:47:53.466Z,60
2023-02-11T19:52:55.286Z,60
2023-02-11T19:57:56.863Z,59
2023-02-11T20:02:58.203Z,59
2023-02-11T20:08:00.143Z,59
2023-02-11T20:13:02.267Z,59
2023-02-11T20:18:04.419Z,60
2023-02-11T20:23:06.050Z,60
2023-02-11T20:28:07.337Z,60
2023-02-11T20:33:09.424Z,60
2023-02-11T20:38:11.398Z,60
2023-02-11T20:43:13.240Z,60
2023-02-11T20:48:14.774Z,60
2023-02-11T20:53:16.318Z,60
2023-02-11T20:58:18.358Z,61
2023-02-11T21:03:19.971Z,60
2023-02-11T21:08:21.628Z,61
2023-02-11T21:13:22.908Z,60
2023-02-11T21:18:24.623Z,60
2023-02-11T21:23:25.947Z,61
2023-02-11T21:28:27.264Z,61
2023-02-11T21:33:29.104Z,61
2023-02-11T21:38:31.357Z,61
2023-02-11T21:43:32.320Z,61
2023-02-11T21:48:33.700Z,61
2023-02-11T21:53:35.664Z,61
2023-02-11T21:58:36.869Z,61
2023-02-11T22:03:38.882Z,61
2023-02-11T22:08:40.709Z,61
2023-02-11T22:13:42.328Z,61
2023-02-11T22:18:43.721Z,61
2023-02-11T22:23:45.201Z,61
2023-02-11T22:28:46.385Z,61
2023-02-11T22:33:47.759Z,61
2023-02-11T22:38:49.297Z,61
2023-02-11T22:43:51.197Z,61
2023-02-11T22:48:52.407Z,62
2023-02-11T22:53:53.996Z,62
2023-02-11T22:58:55.394Z,62
2023-02-11T23:13:59.985Z,63
2023-02-11T23:19:01.483Z,63
2023-02-11T23:24:03.237Z,63
2023-02-11T23:29:05.147Z,63
2023-02-11T23:34:07.053Z,63
2023-02-11T23:39:08.478Z,63
2023-02-11T23:44:10.022Z,63
2023-02-11T23:49:11.618Z,64
2023-02-11T23:54:13.073Z,65
2023-02-11T23:59:14.546Z,66
